CYTE

Details ICAO CYTE (YTE)
Name Cape Dorset
Region Canada
Timezone America/Iqaluit (UTC-4.0)
Plans Departing 9
Arriving 16
Stats Elevation 164 ft / 50 m (AMSL)
Location 64.230235° -76.524873°
Runways 1
Magnetic Variation 24.457° W
Sunrise 2018-05-27 07:14:21 UTC / 2018-05-27 03:14:21 Local
Sunset 2018-05-28 02:55:06 UTC / 2018-05-27 22:55:06 Local
Advertisement - Login to hide

Runways

ID Width Length Bearing (true) Bearing (mag) Surface Threshold Offset Overrun Length
13T 98 ft / 30 m 3,973 ft / 1,211 m 127.39° 151.85° Gravel 0 ft / 0 m 0 ft / 0 m
31T 98 ft / 30 m 3,973 ft / 1,211 m 307.41° 331.87° Gravel 0 ft / 0 m 0 ft / 0 m

Map

Weather


0- 5 10 15 20 25 30 35+ Temperature / ° C

Clouds and Precipitation
Forecast for 2018-05-28 00:00 UTC. Updated 2 hours ago

Ground ~20,000 ft ~40,000 ft Winds

METAR

Not found

TAF

TAF TAF CYTE 280038Z 2801/2813 14015G25KT P6SM SCT020 BKN050 TEMPO 2801/2803 5SM -SN BKN020 OVC050 FM280300 16015KT 5SM -SN OVC015 TEMPO 2803/2813 2SM -SN OVC007 BECMG 2805/2807 16010KT RMK FCST BASED ON AUTO OBS. NXT FCST BY 280700Z

Frequencies

Unicom 122.10 MHz MULTICOM
Warning: Do not use this data for real-world aviation or navigation. No guarantee of current accuracy is given.